createdAt,value
2022-11-08T00:03:54.938Z,11.60
2022-11-08T00:09:15.397Z,11.60
2022-11-08T00:14:17.500Z,11.60
2022-11-08T00:19:19.362Z,11.50
2022-11-08T00:24:21.077Z,11.50
2022-11-08T00:29:22.836Z,11.40
2022-11-08T00:34:24.627Z,11.30
2022-11-08T00:39:26.525Z,11.20
2022-11-08T00:44:28.613Z,11.20
2022-11-08T00:49:30.396Z,11.10
2022-11-08T00:54:32.107Z,11.10
2022-11-08T00:59:33.821Z,11.00
2022-11-08T01:04:36.454Z,11.00
2022-11-08T01:09:38.178Z,11.00
2022-11-08T01:14:39.911Z,11.00
2022-11-08T01:19:41.688Z,10.90
2022-11-08T01:24:43.416Z,10.90
2022-11-08T01:29:45.158Z,10.90
2022-11-08T01:34:46.932Z,10.90
2022-11-08T01:39:48.638Z,10.80
2022-11-08T01:45:01.650Z,10.70
2022-11-08T01:50:11.661Z,10.70
2022-11-08T01:55:16.497Z,10.60
2022-11-08T02:00:19.129Z,10.60
2022-11-08T02:05:26.906Z,10.60
2022-11-08T02:10:41.246Z,10.70
2022-11-08T02:15:43.652Z,10.80
2022-11-08T02:20:53.944Z,10.90
2022-11-08T02:25:56.057Z,11.00
2022-11-08T02:30:57.778Z,11.00
2022-11-08T02:35:59.859Z,11.00
2022-11-08T02:41:01.591Z,10.90
2022-11-08T02:46:03.996Z,10.90
2022-11-08T02:51:06.038Z,10.90
2022-11-08T02:56:07.932Z,10.90
2022-11-08T03:01:10.714Z,10.80
2022-11-08T03:06:12.474Z,10.80
2022-11-08T03:11:14.246Z,10.70
2022-11-08T03:16:16.022Z,10.60
2022-11-08T03:21:17.784Z,10.60
2022-11-08T03:26:19.553Z,10.60
2022-11-08T03:31:21.388Z,10.70
2022-11-08T03:36:23.108Z,10.80
2022-11-08T03:41:24.813Z,10.90
2022-11-08T03:46:26.789Z,11.00
2022-11-08T03:51:28.556Z,11.00
2022-11-08T03:56:30.819Z,11.00
2022-11-08T04:01:32.827Z,10.90
2022-11-08T04:06:35.220Z,10.80
2022-11-08T04:11:55.503Z,10.70
2022-11-08T04:16:57.260Z,10.60
2022-11-08T04:21:59.199Z,10.50
2022-11-08T04:27:02.129Z,10.50
2022-11-08T04:32:05.271Z,10.40
2022-11-08T04:37:07.024Z,10.30
2022-11-08T04:42:08.720Z,10.20
2022-11-08T04:47:10.465Z,10.20
2022-11-08T04:52:12.327Z,10.10
2022-11-08T04:57:14.083Z,10.10
2022-11-08T05:02:16.067Z,10.00
2022-11-08T05:07:18.124Z,9.90
2022-11-08T05:12:19.845Z,9.90
2022-11-08T05:17:21.581Z,9.90
2022-11-08T05:22:41.902Z,9.80
2022-11-08T05:27:43.743Z,9.70
2022-11-08T05:32:45.469Z,9.70
2022-11-08T05:37:47.394Z,9.70
2022-11-08T05:42:49.103Z,9.60
2022-11-08T05:47:50.909Z,9.50
2022-11-08T05:52:54.776Z,9.50
2022-11-08T05:57:56.602Z,9.50
2022-11-08T06:02:58.418Z,9.50
2022-11-08T06:08:00.520Z,9.40
2022-11-08T06:13:02.313Z,9.40
2022-11-08T06:18:04.836Z,9.40
2022-11-08T06:23:06.572Z,9.40
2022-11-08T06:28:08.479Z,9.40
2022-11-08T06:33:10.665Z,9.40
2022-11-08T06:38:12.737Z,9.40
2022-11-08T06:43:19.331Z,9.40
2022-11-08T06:48:21.455Z,9.40
2022-11-08T06:53:23.214Z,9.40
2022-11-08T06:58:24.980Z,9.40
2022-11-08T07:03:26.726Z,9.40
2022-11-08T07:08:28.849Z,9.40
2022-11-08T07:13:30.779Z,9.40
2022-11-08T07:18:32.729Z,9.50
2022-11-08T07:23:34.589Z,9.50
2022-11-08T07:28:36.596Z,9.50
2022-11-08T07:33:38.410Z,9.60
2022-11-08T07:38:40.351Z,9.60
2022-11-08T07:43:42.112Z,9.70
2022-11-08T07:48:47.911Z,9.80
2022-11-08T07:53:49.871Z,9.90
2022-11-08T07:58:53.585Z,9.90
2022-11-08T08:03:55.346Z,10.00
2022-11-08T08:08:57.230Z,10.10
2022-11-08T08:13:59.021Z,10.20
2022-11-08T08:19:00.836Z,10.30
2022-11-08T08:24:02.804Z,10.50
2022-11-08T08:29:04.524Z,10.60
2022-11-08T08:34:06.478Z,10.70
2022-11-08T08:39:08.495Z,10.90
2022-11-08T08:44:11.266Z,11.10
2022-11-08T08:49:12.999Z,11.30
2022-11-08T08:54:15.339Z,11.50
2022-11-08T09:04:40.149Z,11.90
2022-11-08T09:09:42.044Z,12.10
2022-11-08T09:14:44.250Z,12.20
2022-11-08T09:19:46.587Z,12.40
2022-11-08T09:24:48.378Z,12.60
2022-11-08T09:29:50.145Z,12.70
2022-11-08T09:34:52.148Z,12.80
2022-11-08T09:39:54.369Z,13.00
2022-11-08T09:44:59.207Z,13.10
2022-11-08T09:50:26.970Z,13.30
2022-11-08T09:55:36.460Z,13.50
2022-11-08T10:00:40.677Z,13.70
2022-11-08T10:05:50.477Z,13.90
2022-11-08T10:11:04.677Z,14.10
2022-11-08T10:16:27.699Z,14.30
2022-11-08T10:21:57.230Z,14.40
2022-11-08T10:27:00.307Z,14.40
2022-11-08T10:32:13.884Z,14.50
2022-11-08T10:37:17.842Z,14.60
2022-11-08T10:42:45.943Z,14.80
2022-11-08T10:47:47.862Z,15.00
2022-11-08T10:53:00.329Z,15.00
2022-11-08T10:58:02.246Z,15.20
2022-11-08T11:03:09.987Z,15.40
2022-11-08T11:08:12.270Z,15.40
2022-11-08T11:13:14.174Z,15.30
2022-11-08T11:18:48.987Z,15.30
2022-11-08T11:23:56.044Z,15.30
2022-11-08T11:29:06.921Z,15.40
2022-11-08T11:34:17.590Z,15.40
2022-11-08T11:39:42.677Z,15.40
2022-11-08T11:45:09.015Z,15.50
2022-11-08T11:50:20.595Z,15.50
2022-11-08T11:55:59.161Z,15.60
2022-11-08T12:01:39.598Z,15.60
2022-11-08T12:07:00.870Z,15.60
2022-11-08T12:12:20.688Z,15.80
2022-11-08T12:17:37.197Z,16.00
2022-11-08T12:22:57.425Z,16.10
2022-11-08T12:28:42.221Z,16.10
2022-11-08T12:33:55.223Z,16.20
2022-11-08T12:39:25.505Z,16.30
2022-11-08T12:44:45.168Z,16.40
2022-11-08T12:49:46.825Z,16.50
2022-11-08T12:54:53.498Z,16.70
2022-11-08T13:00:08.590Z,16.90
2022-11-08T13:05:20.710Z,17.10
2022-11-08T13:10:47.737Z,17.20
2022-11-08T13:16:10.048Z,17.30
2022-11-08T13:21:30.229Z,17.40
2022-11-08T13:26:34.098Z,17.50
2022-11-08T13:31:38.748Z,17.20
2022-11-08T13:37:13.790Z,17.00
2022-11-08T13:42:15.488Z,16.90
2022-11-08T13:47:38.476Z,16.70
2022-11-08T13:53:01.158Z,16.60
2022-11-08T13:58:02.911Z,16.50
2022-11-08T14:03:33.632Z,16.40
2022-11-08T14:08:42.441Z,16.30
2022-11-08T14:14:22.036Z,16.10
2022-11-08T14:19:26.276Z,16.00
2022-11-08T14:24:36.332Z,15.80
2022-11-08T14:29:38.166Z,15.70
2022-11-08T14:34:39.940Z,15.70
2022-11-08T14:39:46.191Z,15.70
2022-11-08T14:44:48.123Z,15.60
2022-11-08T14:49:49.866Z,15.50
2022-11-08T14:55:23.229Z,15.50
2022-11-08T15:00:28.856Z,15.40
2022-11-08T15:05:33.312Z,15.30
2022-11-08T15:10:35.130Z,15.10
2022-11-08T15:15:37.256Z,15.00
2022-11-08T15:20:39.756Z,14.90
2022-11-08T15:25:41.536Z,14.70
2022-11-08T15:30:45.370Z,14.60
2022-11-08T15:35:47.473Z,14.50
2022-11-08T15:40:54.382Z,14.50
2022-11-08T15:45:57.077Z,14.40
2022-11-08T15:50:59.098Z,14.30
2022-11-08T15:56:04.808Z,14.20
2022-11-08T16:01:06.971Z,14.20
2022-11-08T16:06:12.142Z,14.20
2022-11-08T16:11:20.396Z,14.10
2022-11-08T16:16:22.188Z,14.10
2022-11-08T16:21:23.969Z,14.00
2022-11-08T16:26:25.716Z,13.90
2022-11-08T16:31:27.447Z,13.90
2022-11-08T16:36:29.694Z,13.90
2022-11-08T16:41:31.470Z,13.90
2022-11-08T16:46:33.263Z,13.80
2022-11-08T16:51:35.707Z,13.80
2022-11-08T16:56:37.445Z,13.80
2022-11-08T17:01:40.418Z,13.70
2022-11-08T17:06:42.319Z,13.70
2022-11-08T17:11:44.163Z,13.60
2022-11-08T17:16:46.653Z,13.60
2022-11-08T17:21:48.435Z,13.50
2022-11-08T17:26:50.603Z,13.50
2022-11-08T17:31:53.001Z,13.60
2022-11-08T17:36:54.800Z,13.60
2022-11-08T17:41:56.612Z,13.50
2022-11-08T17:46:58.475Z,13.50
2022-11-08T17:52:00.225Z,13.50
2022-11-08T17:57:02.025Z,13.40
2022-11-08T18:02:03.930Z,13.40
2022-11-08T18:07:06.161Z,13.30
2022-11-08T18:12:07.941Z,13.20
2022-11-08T18:17:09.823Z,13.20
2022-11-08T18:22:11.645Z,13.10
2022-11-08T18:27:13.492Z,13.10
2022-11-08T18:32:15.250Z,13.00
2022-11-08T18:37:17.014Z,13.00
2022-11-08T18:42:18.768Z,12.90
2022-11-08T18:47:20.578Z,12.90
2022-11-08T18:52:22.335Z,12.90
2022-11-08T18:57:24.191Z,12.80
2022-11-08T19:02:25.936Z,12.80
2022-11-08T19:07:27.846Z,12.80
2022-11-08T19:12:30.204Z,12.80
2022-11-08T19:17:32.913Z,12.70
2022-11-08T19:22:34.852Z,12.70
2022-11-08T19:27:36.584Z,12.70
2022-11-08T19:32:38.351Z,12.70
2022-11-08T19:37:40.074Z,12.70
2022-11-08T19:42:41.831Z,12.80
2022-11-08T19:47:43.609Z,12.80
2022-11-08T19:52:45.382Z,12.80
2022-11-08T19:57:47.468Z,12.70
2022-11-08T20:02:50.859Z,12.70
2022-11-08T20:07:52.654Z,12.70
2022-11-08T20:12:54.487Z,12.60
2022-11-08T20:17:56.273Z,12.60
2022-11-08T20:22:58.172Z,12.60
2022-11-08T20:28:03.705Z,12.60
2022-11-08T20:33:05.439Z,12.60
2022-11-08T20:38:07.559Z,12.50
2022-11-08T20:43:09.372Z,12.60
2022-11-08T20:48:14.170Z,12.50
2022-11-08T20:53:16.243Z,12.50
2022-11-08T20:58:18.457Z,12.40
2022-11-08T21:03:21.940Z,12.40
2022-11-08T21:13:47.391Z,12.30
2022-11-08T21:18:49.444Z,12.30
2022-11-08T21:23:52.063Z,12.20
2022-11-08T21:28:54.157Z,12.30
2022-11-08T21:33:55.902Z,12.30
2022-11-08T21:38:57.709Z,12.20
2022-11-08T21:44:02.851Z,12.30
2022-11-08T21:49:05.870Z,12.20
2022-11-08T21:54:07.734Z,12.30
2022-11-08T21:59:11.058Z,12.30
2022-11-08T22:04:12.832Z,12.30
2022-11-08T22:09:14.605Z,12.30
2022-11-08T22:14:16.349Z,12.30
2022-11-08T22:19:18.094Z,12.30
2022-11-08T22:24:21.205Z,12.20
2022-11-08T22:29:23.837Z,12.20
2022-11-08T22:34:25.676Z,12.20
2022-11-08T22:39:27.414Z,12.30
2022-11-08T22:44:29.421Z,12.30
2022-11-08T22:49:31.191Z,12.30
2022-11-08T22:54:32.975Z,12.30
2022-11-08T22:59:34.695Z,12.40
2022-11-08T23:04:36.432Z,12.40
2022-11-08T23:09:38.217Z,12.40
2022-11-08T23:14:58.515Z,12.50
2022-11-08T23:20:18.832Z,12.50
2022-11-08T23:25:20.634Z,12.50
2022-11-08T23:30:40.802Z,12.50
2022-11-08T23:36:02.523Z,12.50
2022-11-08T23:41:22.846Z,12.50
2022-11-08T23:46:24.613Z,12.50
2022-11-08T23:51:26.344Z,12.50
2022-11-08T23:56:28.797Z,12.50
